sensor_id;sensor_type;location;lat;lon;timestamp;P1;durP1;ratioP1;P2;durP2;ratioP2
80255;SDS011;69564;37.974;23.708;2023-05-07T00:00:00;4.22;;;3.83;;
80255;SDS011;69564;37.974;23.708;2023-05-07T00:02:26;4.18;;;3.78;;
80255;SDS011;69564;37.974;23.708;2023-05-07T00:04:52;3.63;;;3.33;;
80255;SDS011;69564;37.974;23.708;2023-05-07T00:07:18;3.63;;;3.33;;
80255;SDS011;69564;37.974;23.708;2023-05-07T00:09:43;4.18;;;3.67;;
80255;SDS011;69564;37.974;23.708;2023-05-07T00:12:09;3.88;;;3.58;;
80255;SDS011;69564;37.974;23.708;2023-05-07T00:14:35;3.80;;;3.45;;
80255;SDS011;69564;37.974;23.708;2023-05-07T00:17:01;3.88;;;3.58;;
80255;SDS011;69564;37.974;23.708;2023-05-07T00:19:27;3.90;;;3.50;;
80255;SDS011;69564;37.974;23.708;2023-05-07T00:21:53;4.78;;;4.35;;
80255;SDS011;69564;37.974;23.708;2023-05-07T00:24:19;4.15;;;3.75;;
80255;SDS011;69564;37.974;23.708;2023-05-07T00:26:45;3.83;;;3.45;;
80255;SDS011;69564;37.974;23.708;2023-05-07T00:29:10;4.05;;;3.65;;
80255;SDS011;69564;37.974;23.708;2023-05-07T00:31:36;3.60;;;3.30;;
80255;SDS011;69564;37.974;23.708;2023-05-07T00:34:02;4.57;;;3.70;;
80255;SDS011;69564;37.974;23.708;2023-05-07T00:36:27;4.13;;;3.72;;
80255;SDS011;69564;37.974;23.708;2023-05-07T00:38:54;4.32;;;3.92;;
80255;SDS011;69564;37.974;23.708;2023-05-07T00:41:21;5.03;;;3.60;;
80255;SDS011;69564;37.974;23.708;2023-05-07T00:43:47;4.07;;;3.65;;
80255;SDS011;69564;37.974;23.708;2023-05-07T00:46:13;3.88;;;3.42;;
80255;SDS011;69564;37.974;23.708;2023-05-07T00:48:40;3.50;;;3.17;;
80255;SDS011;69564;37.974;23.708;2023-05-07T00:51:06;3.85;;;3.55;;
80255;SDS011;69564;37.974;23.708;2023-05-07T00:53:32;4.10;;;3.80;;
80255;SDS011;69564;37.974;23.708;2023-05-07T00:55:57;3.90;;;3.60;;
80255;SDS011;69564;37.974;23.708;2023-05-07T00:58:25;4.03;;;3.65;;
80255;SDS011;69564;37.974;23.708;2023-05-07T01:00:51;4.78;;;3.78;;
80255;SDS011;69564;37.974;23.708;2023-05-07T01:03:17;4.15;;;3.78;;
80255;SDS011;69564;37.974;23.708;2023-05-07T01:05:43;4.03;;;3.63;;
80255;SDS011;69564;37.974;23.708;2023-05-07T01:08:11;4.43;;;3.72;;
80255;SDS011;69564;37.974;23.708;2023-05-07T01:10:37;4.15;;;3.75;;
80255;SDS011;69564;37.974;23.708;2023-05-07T01:13:07;4.20;;;3.65;;
80255;SDS011;69564;37.974;23.708;2023-05-07T01:15:35;4.20;;;3.80;;
80255;SDS011;69564;37.974;23.708;2023-05-07T01:18:01;4.80;;;4.40;;
80255;SDS011;69564;37.974;23.708;2023-05-07T01:20:28;3.92;;;3.53;;
80255;SDS011;69564;37.974;23.708;2023-05-07T01:22:54;4.30;;;3.58;;
80255;SDS011;69564;37.974;23.708;2023-05-07T01:25:21;4.13;;;3.70;;
80255;SDS011;69564;37.974;23.708;2023-05-07T01:27:47;4.38;;;3.97;;
80255;SDS011;69564;37.974;23.708;2023-05-07T01:30:13;3.67;;;3.38;;
80255;SDS011;69564;37.974;23.708;2023-05-07T01:35:18;4.07;;;3.60;;
80255;SDS011;69564;37.974;23.708;2023-05-07T01:37:46;3.88;;;3.47;;
80255;SDS011;69564;37.974;23.708;2023-05-07T01:40:13;4.10;;;3.70;;
80255;SDS011;69564;37.974;23.708;2023-05-07T01:42:39;4.55;;;4.15;;
80255;SDS011;69564;37.974;23.708;2023-05-07T01:45:06;3.88;;;3.47;;
80255;SDS011;69564;37.974;23.708;2023-05-07T01:47:32;3.72;;;3.42;;
80255;SDS011;69564;37.974;23.708;2023-05-07T01:49:59;3.65;;;3.35;;
80255;SDS011;69564;37.974;23.708;2023-05-07T01:52:25;4.57;;;4.15;;
80255;SDS011;69564;37.974;23.708;2023-05-07T01:54:52;3.88;;;3.33;;
80255;SDS011;69564;37.974;23.708;2023-05-07T01:57:18;3.80;;;3.40;;
80255;SDS011;69564;37.974;23.708;2023-05-07T01:59:44;4.30;;;3.88;;
80255;SDS011;69564;37.974;23.708;2023-05-07T02:02:09;3.70;;;3.40;;
80255;SDS011;69564;37.974;23.708;2023-05-07T02:04:35;4.38;;;3.97;;
80255;SDS011;69564;37.974;23.708;2023-05-07T02:07:01;3.70;;;3.40;;
80255;SDS011;69564;37.974;23.708;2023-05-07T02:09:27;3.75;;;3.25;;
80255;SDS011;69564;37.974;23.708;2023-05-07T02:11:53;3.70;;;3.40;;
80255;SDS011;69564;37.974;23.708;2023-05-07T02:14:18;4.07;;;3.70;;
80255;SDS011;69564;37.974;23.708;2023-05-07T02:16:45;3.95;;;3.55;;
80255;SDS011;69564;37.974;23.708;2023-05-07T02:19:11;4.07;;;3.28;;
80255;SDS011;69564;37.974;23.708;2023-05-07T02:21:37;3.58;;;3.28;;
80255;SDS011;69564;37.974;23.708;2023-05-07T02:24:02;3.53;;;3.22;;
80255;SDS011;69564;37.974;23.708;2023-05-07T02:26:28;3.80;;;3.50;;
80255;SDS011;69564;37.974;23.708;2023-05-07T02:28:54;3.78;;;3.47;;
80255;SDS011;69564;37.974;23.708;2023-05-07T02:31:19;4.47;;;3.70;;
80255;SDS011;69564;37.974;23.708;2023-05-07T02:33:45;3.67;;;3.38;;
80255;SDS011;69564;37.974;23.708;2023-05-07T02:36:11;3.63;;;3.33;;
80255;SDS011;69564;37.974;23.708;2023-05-07T02:38:37;3.40;;;3.10;;
80255;SDS011;69564;37.974;23.708;2023-05-07T02:41:03;4.07;;;3.67;;
80255;SDS011;69564;37.974;23.708;2023-05-07T02:43:29;3.72;;;3.40;;
80255;SDS011;69564;37.974;23.708;2023-05-07T02:46:02;4.10;;;3.70;;
80255;SDS011;69564;37.974;23.708;2023-05-07T02:48:29;4.03;;;3.63;;
80255;SDS011;69564;37.974;23.708;2023-05-07T02:50:55;4.25;;;3.70;;
80255;SDS011;69564;37.974;23.708;2023-05-07T02:53:20;4.00;;;3.58;;
80255;SDS011;69564;37.974;23.708;2023-05-07T02:55:46;3.85;;;3.38;;
80255;SDS011;69564;37.974;23.708;2023-05-07T02:58:12;4.20;;;3.80;;
80255;SDS011;69564;37.974;23.708;2023-05-07T03:00:38;4.38;;;3.65;;
80255;SDS011;69564;37.974;23.708;2023-05-07T03:03:03;3.90;;;3.40;;
80255;SDS011;69564;37.974;23.708;2023-05-07T03:05:29;4.13;;;3.72;;
80255;SDS011;69564;37.974;23.708;2023-05-07T03:07:55;3.83;;;3.53;;
80255;SDS011;69564;37.974;23.708;2023-05-07T03:10:21;3.90;;;3.60;;
80255;SDS011;69564;37.974;23.708;2023-05-07T03:12:46;4.00;;;3.60;;
80255;SDS011;69564;37.974;23.708;2023-05-07T03:15:12;3.63;;;3.33;;
80255;SDS011;69564;37.974;23.708;2023-05-07T03:17:38;3.90;;;3.60;;
80255;SDS011;69564;37.974;23.708;2023-05-07T03:20:04;3.90;;;3.28;;
80255;SDS011;69564;37.974;23.708;2023-05-07T03:22:30;3.72;;;3.42;;
80255;SDS011;69564;37.974;23.708;2023-05-07T03:24:56;4.38;;;3.97;;
80255;SDS011;69564;37.974;23.708;2023-05-07T03:27:22;3.95;;;3.47;;
80255;SDS011;69564;37.974;23.708;2023-05-07T03:29:47;3.40;;;3.10;;
80255;SDS011;69564;37.974;23.708;2023-05-07T03:32:13;4.07;;;3.72;;
80255;SDS011;69564;37.974;23.708;2023-05-07T03:34:39;3.67;;;3.33;;
80255;SDS011;69564;37.974;23.708;2023-05-07T03:37:05;4.03;;;3.20;;
80255;SDS011;69564;37.974;23.708;2023-05-07T03:39:31;3.97;;;3.50;;
80255;SDS011;69564;37.974;23.708;2023-05-07T03:41:57;4.03;;;3.60;;
80255;SDS011;69564;37.974;23.708;2023-05-07T03:44:23;3.47;;;3.17;;
80255;SDS011;69564;37.974;23.708;2023-05-07T03:46:49;3.55;;;2.97;;
80255;SDS011;69564;37.974;23.708;2023-05-07T03:49:15;3.47;;;3.17;;
80255;SDS011;69564;37.974;23.708;2023-05-07T03:51:40;3.33;;;3.03;;
80255;SDS011;69564;37.974;23.708;2023-05-07T03:54:07;3.42;;;3.05;;
80255;SDS011;69564;37.974;23.708;2023-05-07T03:56:33;3.60;;;3.28;;
80255;SDS011;69564;37.974;23.708;2023-05-07T03:58:59;4.35;;;3.42;;
80255;SDS011;69564;37.974;23.708;2023-05-07T04:01:25;3.75;;;3.30;;
80255;SDS011;69564;37.974;23.708;2023-05-07T04:03:51;3.47;;;3.10;;
80255;SDS011;69564;37.974;23.708;2023-05-07T04:06:17;3.33;;;3.08;;
80255;SDS011;69564;37.974;23.708;2023-05-07T04:08:43;3.53;;;3.22;;
80255;SDS011;69564;37.974;23.708;2023-05-07T04:11:08;3.70;;;3.30;;
80255;SDS011;69564;37.974;23.708;2023-05-07T04:13:34;3.13;;;2.92;;
80255;SDS011;69564;37.974;23.708;2023-05-07T04:16:01;3.97;;;3.25;;
80255;SDS011;69564;37.974;23.708;2023-05-07T04:18:27;4.70;;;3.33;;
80255;SDS011;69564;37.974;23.708;2023-05-07T04:20:53;4.30;;;3.20;;
80255;SDS011;69564;37.974;23.708;2023-05-07T04:23:19;3.30;;;3.00;;
80255;SDS011;69564;37.974;23.708;2023-05-07T04:25:45;4.43;;;3.60;;
80255;SDS011;69564;37.974;23.708;2023-05-07T04:28:11;3.65;;;3.20;;
80255;SDS011;69564;37.974;23.708;2023-05-07T04:30:37;3.47;;;3.20;;
80255;SDS011;69564;37.974;23.708;2023-05-07T04:33:03;4.15;;;3.42;;
80255;SDS011;69564;37.974;23.708;2023-05-07T04:35:29;4.30;;;3.03;;
80255;SDS011;69564;37.974;23.708;2023-05-07T04:37:55;3.08;;;2.88;;
80255;SDS011;69564;37.974;23.708;2023-05-07T04:40:21;3.42;;;3.13;;
80255;SDS011;69564;37.974;23.708;2023-05-07T04:42:47;3.17;;;2.88;;
80255;SDS011;69564;37.974;23.708;2023-05-07T04:45:13;3.13;;;2.85;;
80255;SDS011;69564;37.974;23.708;2023-05-07T04:47:39;3.25;;;2.95;;
80255;SDS011;69564;37.974;23.708;2023-05-07T04:50:06;3.15;;;2.85;;
80255;SDS011;69564;37.974;23.708;2023-05-07T04:52:33;3.63;;;2.97;;
80255;SDS011;69564;37.974;23.708;2023-05-07T04:54:59;3.22;;;2.92;;
80255;SDS011;69564;37.974;23.708;2023-05-07T04:57:25;3.50;;;3.20;;
80255;SDS011;69564;37.974;23.708;2023-05-07T04:59:52;5.07;;;2.92;;
80255;SDS011;69564;37.974;23.708;2023-05-07T05:02:18;3.85;;;3.20;;
80255;SDS011;69564;37.974;23.708;2023-05-07T05:04:44;3.67;;;3.03;;
80255;SDS011;69564;37.974;23.708;2023-05-07T05:07:10;3.30;;;3.00;;
80255;SDS011;69564;37.974;23.708;2023-05-07T05:09:36;3.00;;;2.65;;
80255;SDS011;69564;37.974;23.708;2023-05-07T05:12:02;3.60;;;2.90;;
80255;SDS011;69564;37.974;23.708;2023-05-07T05:14:28;3.25;;;2.95;;
80255;SDS011;69564;37.974;23.708;2023-05-07T05:16:54;3.45;;;3.13;;
80255;SDS011;69564;37.974;23.708;2023-05-07T05:19:20;3.08;;;2.78;;
80255;SDS011;69564;37.974;23.708;2023-05-07T05:21:45;3.28;;;2.97;;
80255;SDS011;69564;37.974;23.708;2023-05-07T05:24:11;3.20;;;3.00;;
80255;SDS011;69564;37.974;23.708;2023-05-07T05:26:37;3.13;;;2.83;;
80255;SDS011;69564;37.974;23.708;2023-05-07T05:29:03;3.08;;;2.75;;
80255;SDS011;69564;37.974;23.708;2023-05-07T05:31:28;3.28;;;2.75;;
80255;SDS011;69564;37.974;23.708;2023-05-07T05:33:54;3.30;;;3.00;;
80255;SDS011;69564;37.974;23.708;2023-05-07T05:36:20;2.78;;;2.58;;
80255;SDS011;69564;37.974;23.708;2023-05-07T05:38:46;3.15;;;2.80;;
80255;SDS011;69564;37.974;23.708;2023-05-07T05:41:11;3.38;;;3.08;;
80255;SDS011;69564;37.974;23.708;2023-05-07T05:43:37;3.08;;;2.80;;
80255;SDS011;69564;37.974;23.708;2023-05-07T05:46:03;2.75;;;2.55;;
80255;SDS011;69564;37.974;23.708;2023-05-07T05:48:29;2.67;;;2.47;;
80255;SDS011;69564;37.974;23.708;2023-05-07T05:50:55;3.95;;;2.67;;
80255;SDS011;69564;37.974;23.708;2023-05-07T05:53:21;2.85;;;2.65;;
80255;SDS011;69564;37.974;23.708;2023-05-07T05:55:47;3.58;;;2.60;;
80255;SDS011;69564;37.974;23.708;2023-05-07T05:58:13;2.83;;;2.63;;
80255;SDS011;69564;37.974;23.708;2023-05-07T06:00:40;3.30;;;2.95;;
80255;SDS011;69564;37.974;23.708;2023-05-07T06:03:06;2.92;;;2.40;;
80255;SDS011;69564;37.974;23.708;2023-05-07T06:05:31;2.78;;;2.58;;
80255;SDS011;69564;37.974;23.708;2023-05-07T06:07:57;2.88;;;2.67;;
80255;SDS011;69564;37.974;23.708;2023-05-07T06:10:23;3.17;;;2.67;;
80255;SDS011;69564;37.974;23.708;2023-05-07T06:12:49;3.13;;;2.83;;
80255;SDS011;69564;37.974;23.708;2023-05-07T06:15:15;3.42;;;2.95;;
80255;SDS011;69564;37.974;23.708;2023-05-07T06:17:40;2.53;;;2.33;;
80255;SDS011;69564;37.974;23.708;2023-05-07T06:20:06;3.13;;;2.63;;
80255;SDS011;69564;37.974;23.708;2023-05-07T06:22:32;3.95;;;3.00;;
80255;SDS011;69564;37.974;23.708;2023-05-07T06:24:58;2.65;;;2.42;;
80255;SDS011;69564;37.974;23.708;2023-05-07T06:27:24;4.78;;;3.15;;
80255;SDS011;69564;37.974;23.708;2023-05-07T06:29:50;2.92;;;2.72;;
80255;SDS011;69564;37.974;23.708;2023-05-07T06:32:15;2.80;;;2.60;;
80255;SDS011;69564;37.974;23.708;2023-05-07T06:34:42;3.35;;;2.80;;
80255;SDS011;69564;37.974;23.708;2023-05-07T06:37:07;2.80;;;2.58;;
80255;SDS011;69564;37.974;23.708;2023-05-07T06:39:33;2.70;;;2.50;;
80255;SDS011;69564;37.974;23.708;2023-05-07T06:42:02;2.55;;;2.35;;
80255;SDS011;69564;37.974;23.708;2023-05-07T06:44:29;2.67;;;2.47;;
80255;SDS011;69564;37.974;23.708;2023-05-07T06:46:55;2.65;;;2.45;;
80255;SDS011;69564;37.974;23.708;2023-05-07T06:49:21;4.53;;;2.42;;
80255;SDS011;69564;37.974;23.708;2023-05-07T06:51:48;3.13;;;2.83;;
80255;SDS011;69564;37.974;23.708;2023-05-07T06:54:13;2.80;;;2.50;;
80255;SDS011;69564;37.974;23.708;2023-05-07T06:56:39;3.13;;;2.58;;
80255;SDS011;69564;37.974;23.708;2023-05-07T06:59:05;2.85;;;2.58;;
80255;SDS011;69564;37.974;23.708;2023-05-07T07:01:31;4.30;;;2.42;;
80255;SDS011;69564;37.974;23.708;2023-05-07T07:03:57;2.72;;;2.53;;
80255;SDS011;69564;37.974;23.708;2023-05-07T07:06:23;2.38;;;2.20;;
80255;SDS011;69564;37.974;23.708;2023-05-07T07:08:48;3.70;;;2.67;;
80255;SDS011;69564;37.974;23.708;2023-05-07T07:11:14;2.30;;;2.10;;
80255;SDS011;69564;37.974;23.708;2023-05-07T07:13:40;3.10;;;2.00;;
80255;SDS011;69564;37.974;23.708;2023-05-07T07:16:07;1.95;;;1.85;;
80255;SDS011;69564;37.974;23.708;2023-05-07T07:18:33;2.53;;;2.33;;
80255;SDS011;69564;37.974;23.708;2023-05-07T07:20:59;2.65;;;2.38;;
80255;SDS011;69564;37.974;23.708;2023-05-07T07:23:25;2.53;;;2.33;;
80255;SDS011;69564;37.974;23.708;2023-05-07T07:25:50;2.97;;;2.40;;
80255;SDS011;69564;37.974;23.708;2023-05-07T07:28:16;2.35;;;1.92;;
80255;SDS011;69564;37.974;23.708;2023-05-07T07:30:42;2.35;;;2.15;;
80255;SDS011;69564;37.974;23.708;2023-05-07T07:33:08;2.85;;;2.63;;
80255;SDS011;69564;37.974;23.708;2023-05-07T07:35:34;2.90;;;2.35;;
80255;SDS011;69564;37.974;23.708;2023-05-07T07:38:00;2.53;;;2.30;;
80255;SDS011;69564;37.974;23.708;2023-05-07T07:40:26;2.53;;;2.33;;
80255;SDS011;69564;37.974;23.708;2023-05-07T07:42:53;2.67;;;2.47;;
80255;SDS011;69564;37.974;23.708;2023-05-07T07:45:19;2.33;;;2.13;;
80255;SDS011;69564;37.974;23.708;2023-05-07T07:47:44;2.47;;;2.22;;
80255;SDS011;69564;37.974;23.708;2023-05-07T07:50:11;2.92;;;2.40;;
80255;SDS011;69564;37.974;23.708;2023-05-07T07:52:36;2.97;;;2.10;;
80255;SDS011;69564;37.974;23.708;2023-05-07T07:55:02;2.50;;;2.30;;
80255;SDS011;69564;37.974;23.708;2023-05-07T07:57:29;3.38;;;2.13;;
80255;SDS011;69564;37.974;23.708;2023-05-07T07:59:55;2.22;;;2.10;;
80255;SDS011;69564;37.974;23.708;2023-05-07T08:02:21;2.50;;;2.30;;
80255;SDS011;69564;37.974;23.708;2023-05-07T08:04:47;2.72;;;2.42;;
80255;SDS011;69564;37.974;23.708;2023-05-07T08:07:12;3.30;;;2.35;;
80255;SDS011;69564;37.974;23.708;2023-05-07T08:09:38;2.22;;;2.10;;
80255;SDS011;69564;37.974;23.708;2023-05-07T08:12:05;3.15;;;2.50;;
80255;SDS011;69564;37.974;23.708;2023-05-07T08:14:32;2.50;;;2.30;;
80255;SDS011;69564;37.974;23.708;2023-05-07T08:16:58;2.30;;;2.10;;
80255;SDS011;69564;37.974;23.708;2023-05-07T08:19:23;2.60;;;2.28;;
80255;SDS011;69564;37.974;23.708;2023-05-07T08:21:49;4.15;;;2.38;;
80255;SDS011;69564;37.974;23.708;2023-05-07T08:24:15;3.25;;;2.30;;
80255;SDS011;69564;37.974;23.708;2023-05-07T08:26:42;2.60;;;2.40;;
80255;SDS011;69564;37.974;23.708;2023-05-07T08:29:08;2.80;;;2.08;;
80255;SDS011;69564;37.974;23.708;2023-05-07T08:31:34;5.45;;;2.20;;
80255;SDS011;69564;37.974;23.708;2023-05-07T08:34:00;2.72;;;2.47;;
80255;SDS011;69564;37.974;23.708;2023-05-07T08:36:26;4.30;;;2.50;;
80255;SDS011;69564;37.974;23.708;2023-05-07T08:38:52;3.47;;;2.60;;
80255;SDS011;69564;37.974;23.708;2023-05-07T08:41:18;3.55;;;2.35;;
80255;SDS011;69564;37.974;23.708;2023-05-07T08:43:47;3.05;;;2.40;;
80255;SDS011;69564;37.974;23.708;2023-05-07T08:46:17;2.47;;;2.28;;
80255;SDS011;69564;37.974;23.708;2023-05-07T08:48:44;3.05;;;2.47;;
80255;SDS011;69564;37.974;23.708;2023-05-07T08:51:13;3.05;;;2.22;;
80255;SDS011;69564;37.974;23.708;2023-05-07T08:53:41;2.42;;;2.10;;
80255;SDS011;69564;37.974;23.708;2023-05-07T08:56:10;2.50;;;2.30;;
80255;SDS011;69564;37.974;23.708;2023-05-07T08:58:37;3.10;;;2.90;;
80255;SDS011;69564;37.974;23.708;2023-05-07T09:01:03;2.50;;;2.33;;
80255;SDS011;69564;37.974;23.708;2023-05-07T09:03:37;4.57;;;2.40;;
80255;SDS011;69564;37.974;23.708;2023-05-07T09:06:04;2.97;;;2.38;;
80255;SDS011;69564;37.974;23.708;2023-05-07T09:08:33;2.83;;;2.30;;
80255;SDS011;69564;37.974;23.708;2023-05-07T09:11:00;5.57;;;2.45;;
80255;SDS011;69564;37.974;23.708;2023-05-07T09:13:27;2.58;;;2.38;;
80255;SDS011;69564;37.974;23.708;2023-05-07T09:15:52;2.30;;;2.10;;
80255;SDS011;69564;37.974;23.708;2023-05-07T09:18:18;2.90;;;2.33;;
80255;SDS011;69564;37.974;23.708;2023-05-07T09:20:44;2.78;;;2.47;;
80255;SDS011;69564;37.974;23.708;2023-05-07T09:23:10;4.82;;;2.50;;
80255;SDS011;69564;37.974;23.708;2023-05-07T09:25:36;2.28;;;2.08;;
80255;SDS011;69564;37.974;23.708;2023-05-07T09:28:03;2.67;;;2.47;;
80255;SDS011;69564;37.974;23.708;2023-05-07T09:30:32;2.67;;;2.38;;
80255;SDS011;69564;37.974;23.708;2023-05-07T09:32:59;2.28;;;2.10;;
80255;SDS011;69564;37.974;23.708;2023-05-07T09:35:26;2.65;;;2.38;;
80255;SDS011;69564;37.974;23.708;2023-05-07T09:37:56;2.65;;;2.30;;
80255;SDS011;69564;37.974;23.708;2023-05-07T09:40:23;3.03;;;2.42;;
80255;SDS011;69564;37.974;23.708;2023-05-07T09:42:50;2.72;;;2.38;;
80255;SDS011;69564;37.974;23.708;2023-05-07T09:45:21;3.08;;;2.40;;
80255;SDS011;69564;37.974;23.708;2023-05-07T09:47:48;2.70;;;2.50;;
80255;SDS011;69564;37.974;23.708;2023-05-07T09:50:14;3.25;;;2.40;;
80255;SDS011;69564;37.974;23.708;2023-05-07T09:52:41;3.35;;;2.65;;
80255;SDS011;69564;37.974;23.708;2023-05-07T09:55:09;2.70;;;2.50;;
80255;SDS011;69564;37.974;23.708;2023-05-07T09:57:35;2.35;;;2.15;;
80255;SDS011;69564;37.974;23.708;2023-05-07T10:00:02;2.08;;;1.98;;
80255;SDS011;69564;37.974;23.708;2023-05-07T10:02:29;2.83;;;2.28;;
80255;SDS011;69564;37.974;23.708;2023-05-07T10:04:56;2.20;;;2.00;;
80255;SDS011;69564;37.974;23.708;2023-05-07T10:07:25;2.30;;;2.10;;
80255;SDS011;69564;37.974;23.708;2023-05-07T10:09:51;2.72;;;2.30;;
80255;SDS011;69564;37.974;23.708;2023-05-07T10:12:18;2.65;;;2.45;;
80255;SDS011;69564;37.974;23.708;2023-05-07T10:14:45;2.75;;;2.25;;
80255;SDS011;69564;37.974;23.708;2023-05-07T10:17:12;2.70;;;2.50;;
80255;SDS011;69564;37.974;23.708;2023-05-07T10:19:40;2.22;;;2.08;;
80255;SDS011;69564;37.974;23.708;2023-05-07T10:22:07;2.63;;;2.13;;
80255;SDS011;69564;37.974;23.708;2023-05-07T10:24:34;2.58;;;2.38;;
80255;SDS011;69564;37.974;23.708;2023-05-07T10:27:02;2.65;;;2.45;;
80255;SDS011;69564;37.974;23.708;2023-05-07T10:35:01;2.70;;;2.50;;
80255;SDS011;69564;37.974;23.708;2023-05-07T10:37:29;2.75;;;2.45;;
80255;SDS011;69564;37.974;23.708;2023-05-07T10:39:56;2.33;;;2.20;;
80255;SDS011;69564;37.974;23.708;2023-05-07T10:42:23;2.95;;;2.30;;
80255;SDS011;69564;37.974;23.708;2023-05-07T10:44:49;2.67;;;2.47;;
80255;SDS011;69564;37.974;23.708;2023-05-07T10:47:15;2.65;;;2.42;;
80255;SDS011;69564;37.974;23.708;2023-05-07T10:54:41;3.20;;;2.60;;
80255;SDS011;69564;37.974;23.708;2023-05-07T11:00:49;3.03;;;2.43;;
80255;SDS011;69564;37.974;23.708;2023-05-07T11:03:21;2.22;;;2.13;;
80255;SDS011;69564;37.974;23.708;2023-05-07T11:05:40;2.58;;;2.38;;
80255;SDS011;69564;37.974;23.708;2023-05-07T11:08:07;2.78;;;2.40;;
80255;SDS011;69564;37.974;23.708;2023-05-07T11:13:40;3.40;;;2.47;;
80255;SDS011;69564;37.974;23.708;2023-05-07T11:16:22;4.10;;;3.03;;
80255;SDS011;69564;37.974;23.708;2023-05-07T11:18:50;2.45;;;2.25;;
80255;SDS011;69564;37.974;23.708;2023-05-07T11:24:08;2.58;;;2.38;;
80255;SDS011;69564;37.974;23.708;2023-05-07T11:26:43;4.25;;;2.55;;
80255;SDS011;69564;37.974;23.708;2023-05-07T11:29:17;2.80;;;2.60;;
80255;SDS011;69564;37.974;23.708;2023-05-07T11:31:47;2.60;;;2.40;;
80255;SDS011;69564;37.974;23.708;2023-05-07T11:34:23;3.67;;;2.50;;
80255;SDS011;69564;37.974;23.708;2023-05-07T11:36:51;3.10;;;2.60;;
80255;SDS011;69564;37.974;23.708;2023-05-07T11:39:32;2.70;;;2.53;;
80255;SDS011;69564;37.974;23.708;2023-05-07T11:42:01;2.92;;;2.72;;
80255;SDS011;69564;37.974;23.708;2023-05-07T11:44:43;3.17;;;2.97;;
80255;SDS011;69564;37.974;23.708;2023-05-07T11:47:11;3.25;;;2.78;;
80255;SDS011;69564;37.974;23.708;2023-05-07T11:49:42;3.72;;;2.20;;
80255;SDS011;69564;37.974;23.708;2023-05-07T11:52:09;2.60;;;2.40;;
80255;SDS011;69564;37.974;23.708;2023-05-07T11:54:36;3.80;;;2.50;;
80255;SDS011;69564;37.974;23.708;2023-05-07T11:57:02;3.40;;;3.10;;
80255;SDS011;69564;37.974;23.708;2023-05-07T11:59:28;2.55;;;2.35;;
80255;SDS011;69564;37.974;23.708;2023-05-07T12:01:56;3.20;;;2.53;;
80255;SDS011;69564;37.974;23.708;2023-05-07T12:04:24;2.50;;;2.30;;
80255;SDS011;69564;37.974;23.708;2023-05-07T12:06:53;4.28;;;2.83;;
80255;SDS011;69564;37.974;23.708;2023-05-07T12:09:20;3.30;;;2.80;;
80255;SDS011;69564;37.974;23.708;2023-05-07T12:11:46;2.97;;;2.67;;
80255;SDS011;69564;37.974;23.708;2023-05-07T12:14:12;3.17;;;2.88;;
80255;SDS011;69564;37.974;23.708;2023-05-07T12:16:40;2.65;;;2.45;;
80255;SDS011;69564;37.974;23.708;2023-05-07T12:19:07;3.30;;;3.00;;
80255;SDS011;69564;37.974;23.708;2023-05-07T12:21:37;3.13;;;2.92;;
80255;SDS011;69564;37.974;23.708;2023-05-07T12:24:04;3.00;;;2.72;;
80255;SDS011;69564;37.974;23.708;2023-05-07T12:26:30;3.17;;;2.55;;
80255;SDS011;69564;37.974;23.708;2023-05-07T12:28:59;3.10;;;2.90;;
80255;SDS011;69564;37.974;23.708;2023-05-07T12:31:25;4.00;;;2.80;;
80255;SDS011;69564;37.974;23.708;2023-05-07T12:33:51;2.95;;;2.67;;
80255;SDS011;69564;37.974;23.708;2023-05-07T12:36:17;2.90;;;2.70;;
80255;SDS011;69564;37.974;23.708;2023-05-07T12:38:43;4.07;;;2.78;;
80255;SDS011;69564;37.974;23.708;2023-05-07T12:41:09;3.35;;;3.05;;
80255;SDS011;69564;37.974;23.708;2023-05-07T12:43:37;3.13;;;2.90;;
80255;SDS011;69564;37.974;23.708;2023-05-07T12:46:05;5.20;;;2.83;;
80255;SDS011;69564;37.974;23.708;2023-05-07T12:48:32;3.10;;;2.80;;
80255;SDS011;69564;37.974;23.708;2023-05-07T12:50:58;2.83;;;2.53;;
80255;SDS011;69564;37.974;23.708;2023-05-07T12:53:25;3.35;;;3.05;;
80255;SDS011;69564;37.974;23.708;2023-05-07T12:55:53;3.45;;;3.10;;
80255;SDS011;69564;37.974;23.708;2023-05-07T12:58:20;2.63;;;2.42;;
80255;SDS011;69564;37.974;23.708;2023-05-07T13:00:50;3.45;;;3.15;;
80255;SDS011;69564;37.974;23.708;2023-05-07T13:03:23;3.67;;;3.13;;
80255;SDS011;69564;37.974;23.708;2023-05-07T13:05:54;2.95;;;2.75;;
80255;SDS011;69564;37.974;23.708;2023-05-07T13:08:27;2.85;;;2.60;;
80255;SDS011;69564;37.974;23.708;2023-05-07T13:11:01;3.55;;;2.80;;
80255;SDS011;69564;37.974;23.708;2023-05-07T13:13:32;2.60;;;2.35;;
80255;SDS011;69564;37.974;23.708;2023-05-07T13:16:00;2.83;;;2.63;;
80255;SDS011;69564;37.974;23.708;2023-05-07T13:18:27;3.58;;;2.67;;
80255;SDS011;69564;37.974;23.708;2023-05-07T13:20:54;2.85;;;2.65;;
80255;SDS011;69564;37.974;23.708;2023-05-07T13:23:20;2.95;;;2.70;;
80255;SDS011;69564;37.974;23.708;2023-05-07T13:25:46;3.53;;;2.50;;
80255;SDS011;69564;37.974;23.708;2023-05-07T13:28:13;3.13;;;2.83;;
80255;SDS011;69564;37.974;23.708;2023-05-07T13:30:39;3.47;;;2.58;;
80255;SDS011;69564;37.974;23.708;2023-05-07T13:33:05;3.88;;;3.30;;
80255;SDS011;69564;37.974;23.708;2023-05-07T13:35:31;4.45;;;3.08;;
80255;SDS011;69564;37.974;23.708;2023-05-07T13:37:57;3.10;;;2.88;;
80255;SDS011;69564;37.974;23.708;2023-05-07T13:40:23;3.13;;;2.83;;
80255;SDS011;69564;37.974;23.708;2023-05-07T13:42:50;2.90;;;2.60;;
80255;SDS011;69564;37.974;23.708;2023-05-07T13:45:16;3.05;;;2.78;;
80255;SDS011;69564;37.974;23.708;2023-05-07T13:47:45;2.90;;;2.70;;
80255;SDS011;69564;37.974;23.708;2023-05-07T13:50:11;2.88;;;2.53;;
80255;SDS011;69564;37.974;23.708;2023-05-07T13:52:40;3.38;;;3.08;;
80255;SDS011;69564;37.974;23.708;2023-05-07T13:55:08;2.90;;;2.63;;
80255;SDS011;69564;37.974;23.708;2023-05-07T13:57:38;3.30;;;2.85;;
80255;SDS011;69564;37.974;23.708;2023-05-07T14:00:04;3.13;;;2.85;;
80255;SDS011;69564;37.974;23.708;2023-05-07T14:02:30;3.47;;;3.03;;
80255;SDS011;69564;37.974;23.708;2023-05-07T14:04:56;3.10;;;2.80;;
80255;SDS011;69564;37.974;23.708;2023-05-07T14:07:22;2.53;;;2.33;;
80255;SDS011;69564;37.974;23.708;2023-05-07T14:09:48;3.40;;;3.10;;
80255;SDS011;69564;37.974;23.708;2023-05-07T14:12:14;2.80;;;2.60;;
80255;SDS011;69564;37.974;23.708;2023-05-07T14:14:40;2.97;;;2.70;;
80255;SDS011;69564;37.974;23.708;2023-05-07T14:17:06;3.20;;;2.95;;
80255;SDS011;69564;37.974;23.708;2023-05-07T14:19:33;3.13;;;2.88;;
80255;SDS011;69564;37.974;23.708;2023-05-07T14:21:59;3.65;;;2.78;;
80255;SDS011;69564;37.974;23.708;2023-05-07T14:24:24;3.17;;;2.90;;
80255;SDS011;69564;37.974;23.708;2023-05-07T14:26:50;3.08;;;2.80;;
80255;SDS011;69564;37.974;23.708;2023-05-07T14:29:17;2.75;;;2.55;;
80255;SDS011;69564;37.974;23.708;2023-05-07T14:31:44;3.08;;;2.85;;
80255;SDS011;69564;37.974;23.708;2023-05-07T14:34:10;3.22;;;2.90;;
80255;SDS011;69564;37.974;23.708;2023-05-07T14:36:36;3.42;;;2.75;;
80255;SDS011;69564;37.974;23.708;2023-05-07T14:39:03;3.88;;;3.17;;
80255;SDS011;69564;37.974;23.708;2023-05-07T14:41:29;3.10;;;2.83;;
80255;SDS011;69564;37.974;23.708;2023-05-07T14:43:55;3.03;;;2.78;;
80255;SDS011;69564;37.974;23.708;2023-05-07T14:46:20;3.08;;;2.78;;
80255;SDS011;69564;37.974;23.708;2023-05-07T14:48:46;2.80;;;2.50;;
80255;SDS011;69564;37.974;23.708;2023-05-07T14:51:12;3.08;;;2.63;;